sensor_id;sensor_type;location;lat;lon;timestamp;P1;durP1;ratioP1;P2;durP2;ratioP2
34030;SDS011;20319;28.466;-16.274;2022-09-13T00:00:40;10.68;;;2.95;;
34030;SDS011;20319;28.466;-16.274;2022-09-13T00:03:06;10.48;;;2.90;;
34030;SDS011;20319;28.466;-16.274;2022-09-13T00:05:36;10.05;;;2.28;;
34030;SDS011;20319;28.466;-16.274;2022-09-13T00:08:03;9.43;;;2.78;;
34030;SDS011;20319;28.466;-16.274;2022-09-13T00:10:29;8.35;;;2.63;;
34030;SDS011;20319;28.466;-16.274;2022-09-13T00:12:58;10.07;;;3.15;;
34030;SDS011;20319;28.466;-16.274;2022-09-13T00:15:24;9.27;;;2.58;;
34030;SDS011;20319;28.466;-16.274;2022-09-13T00:17:50;11.10;;;3.30;;
34030;SDS011;20319;28.466;-16.274;2022-09-13T00:20:16;10.93;;;2.92;;
34030;SDS011;20319;28.466;-16.274;2022-09-13T00:22:41;8.68;;;2.50;;
34030;SDS011;20319;28.466;-16.274;2022-09-13T00:25:07;9.18;;;2.97;;
34030;SDS011;20319;28.466;-16.274;2022-09-13T00:27:34;9.20;;;2.72;;
34030;SDS011;20319;28.466;-16.274;2022-09-13T00:30:00;9.35;;;2.38;;
34030;SDS011;20319;28.466;-16.274;2022-09-13T00:32:26;6.63;;;2.50;;
34030;SDS011;20319;28.466;-16.274;2022-09-13T00:34:52;11.07;;;2.97;;
34030;SDS011;20319;28.466;-16.274;2022-09-13T00:37:19;10.10;;;2.88;;
34030;SDS011;20319;28.466;-16.274;2022-09-13T00:39:44;8.57;;;2.80;;
34030;SDS011;20319;28.466;-16.274;2022-09-13T00:42:13;16.17;;;3.10;;
34030;SDS011;20319;28.466;-16.274;2022-09-13T00:47:27;8.57;;;2.70;;
34030;SDS011;20319;28.466;-16.274;2022-09-13T00:50:00;11.82;;;2.78;;
34030;SDS011;20319;28.466;-16.274;2022-09-13T00:52:49;11.75;;;2.90;;
34030;SDS011;20319;28.466;-16.274;2022-09-13T00:58:09;10.77;;;3.20;;
34030;SDS011;20319;28.466;-16.274;2022-09-13T01:00:40;11.82;;;2.70;;
34030;SDS011;20319;28.466;-16.274;2022-09-13T01:03:08;9.75;;;2.65;;
34030;SDS011;20319;28.466;-16.274;2022-09-13T01:05:46;6.35;;;2.17;;
34030;SDS011;20319;28.466;-16.274;2022-09-13T01:08:18;8.90;;;2.20;;
34030;SDS011;20319;28.466;-16.274;2022-09-13T01:10:47;8.93;;;2.47;;
34030;SDS011;20319;28.466;-16.274;2022-09-13T01:13:51;10.07;;;2.35;;
34030;SDS011;20319;28.466;-16.274;2022-09-13T01:16:11;9.32;;;2.30;;
34030;SDS011;20319;28.466;-16.274;2022-09-13T01:18:36;8.80;;;2.17;;
34030;SDS011;20319;28.466;-16.274;2022-09-13T01:32:01;9.63;;;2.63;;
34030;SDS011;20319;28.466;-16.274;2022-09-13T01:34:41;11.18;;;2.60;;
34030;SDS011;20319;28.466;-16.274;2022-09-13T01:37:44;8.82;;;2.15;;
34030;SDS011;20319;28.466;-16.274;2022-09-13T01:40:22;11.18;;;2.72;;
34030;SDS011;20319;28.466;-16.274;2022-09-13T01:49:31;10.30;;;2.78;;
34030;SDS011;20319;28.466;-16.274;2022-09-13T01:52:17;10.32;;;2.85;;
34030;SDS011;20319;28.466;-16.274;2022-09-13T01:55:08;8.40;;;2.70;;
34030;SDS011;20319;28.466;-16.274;2022-09-13T01:57:47;11.65;;;2.80;;
34030;SDS011;20319;28.466;-16.274;2022-09-13T02:00:31;13.65;;;2.92;;
34030;SDS011;20319;28.466;-16.274;2022-09-13T02:03:22;11.77;;;2.88;;
34030;SDS011;20319;28.466;-16.274;2022-09-13T02:05:58;8.73;;;2.75;;
34030;SDS011;20319;28.466;-16.274;2022-09-13T02:08:40;10.38;;;2.55;;
34030;SDS011;20319;28.466;-16.274;2022-09-13T02:11:16;12.25;;;3.00;;
34030;SDS011;20319;28.466;-16.274;2022-09-13T02:13:50;12.52;;;3.20;;
34030;SDS011;20319;28.466;-16.274;2022-09-13T02:16:45;9.80;;;3.17;;
34030;SDS011;20319;28.466;-16.274;2022-09-13T02:19:22;14.07;;;3.28;;
34030;SDS011;20319;28.466;-16.274;2022-09-13T02:21:58;13.88;;;3.05;;
34030;SDS011;20319;28.466;-16.274;2022-09-13T02:24:28;7.60;;;2.60;;
34030;SDS011;20319;28.466;-16.274;2022-09-13T02:26:58;11.85;;;3.03;;
34030;SDS011;20319;28.466;-16.274;2022-09-13T02:29:27;10.48;;;3.13;;
34030;SDS011;20319;28.466;-16.274;2022-09-13T02:34:42;11.50;;;3.33;;
34030;SDS011;20319;28.466;-16.274;2022-09-13T02:37:18;12.50;;;3.25;;
34030;SDS011;20319;28.466;-16.274;2022-09-13T02:39:50;9.38;;;2.63;;
34030;SDS011;20319;28.466;-16.274;2022-09-13T02:42:28;13.10;;;2.95;;
34030;SDS011;20319;28.466;-16.274;2022-09-13T02:45:00;11.70;;;2.88;;
34030;SDS011;20319;28.466;-16.274;2022-09-13T02:56:07;10.30;;;2.72;;
34030;SDS011;20319;28.466;-16.274;2022-09-13T03:01:38;11.93;;;2.72;;
34030;SDS011;20319;28.466;-16.274;2022-09-13T03:04:06;9.23;;;2.80;;
34030;SDS011;20319;28.466;-16.274;2022-09-13T03:06:31;9.38;;;3.03;;
34030;SDS011;20319;28.466;-16.274;2022-09-13T03:08:59;10.30;;;3.13;;
34030;SDS011;20319;28.466;-16.274;2022-09-13T03:17:07;8.40;;;3.47;;
34030;SDS011;20319;28.466;-16.274;2022-09-13T03:31:37;10.40;;;2.50;;
34030;SDS011;20319;28.466;-16.274;2022-09-13T03:34:28;8.73;;;2.47;;
34030;SDS011;20319;28.466;-16.274;2022-09-13T03:39:56;9.25;;;2.72;;
34030;SDS011;20319;28.466;-16.274;2022-09-13T03:42:36;10.00;;;2.78;;
34030;SDS011;20319;28.466;-16.274;2022-09-13T03:45:15;10.45;;;3.53;;
34030;SDS011;20319;28.466;-16.274;2022-09-13T03:47:45;8.13;;;3.38;;
34030;SDS011;20319;28.466;-16.274;2022-09-13T03:50:20;7.38;;;2.65;;
34030;SDS011;20319;28.466;-16.274;2022-09-13T03:52:49;11.45;;;2.83;;
34030;SDS011;20319;28.466;-16.274;2022-09-13T03:55:20;11.32;;;2.97;;
34030;SDS011;20319;28.466;-16.274;2022-09-13T03:57:46;8.63;;;2.53;;
34030;SDS011;20319;28.466;-16.274;2022-09-13T04:00:12;10.20;;;2.47;;
34030;SDS011;20319;28.466;-16.274;2022-09-13T04:02:39;8.73;;;2.30;;
34030;SDS011;20319;28.466;-16.274;2022-09-13T04:05:05;9.00;;;2.42;;
34030;SDS011;20319;28.466;-16.274;2022-09-13T04:07:30;7.18;;;2.25;;
34030;SDS011;20319;28.466;-16.274;2022-09-13T04:09:56;8.40;;;2.40;;
34030;SDS011;20319;28.466;-16.274;2022-09-13T04:12:22;9.82;;;2.47;;
34030;SDS011;20319;28.466;-16.274;2022-09-13T04:14:47;8.38;;;2.25;;
34030;SDS011;20319;28.466;-16.274;2022-09-13T04:17:13;8.25;;;2.22;;
34030;SDS011;20319;28.466;-16.274;2022-09-13T04:19:39;7.95;;;2.28;;
34030;SDS011;20319;28.466;-16.274;2022-09-13T04:22:05;8.85;;;2.38;;
34030;SDS011;20319;28.466;-16.274;2022-09-13T04:24:31;8.73;;;2.75;;
34030;SDS011;20319;28.466;-16.274;2022-09-13T04:26:56;8.15;;;2.30;;
34030;SDS011;20319;28.466;-16.274;2022-09-13T04:29:23;9.82;;;2.22;;
34030;SDS011;20319;28.466;-16.274;2022-09-13T04:31:50;10.82;;;2.50;;
34030;SDS011;20319;28.466;-16.274;2022-09-13T04:34:17;9.90;;;2.80;;
34030;SDS011;20319;28.466;-16.274;2022-09-13T04:36:43;6.63;;;2.20;;
34030;SDS011;20319;28.466;-16.274;2022-09-13T04:39:10;6.18;;;2.50;;
34030;SDS011;20319;28.466;-16.274;2022-09-13T04:41:45;10.90;;;2.50;;
34030;SDS011;20319;28.466;-16.274;2022-09-13T04:44:12;7.32;;;2.03;;
34030;SDS011;20319;28.466;-16.274;2022-09-13T04:46:39;11.98;;;2.35;;
34030;SDS011;20319;28.466;-16.274;2022-09-13T04:49:05;6.53;;;2.00;;
34030;SDS011;20319;28.466;-16.274;2022-09-13T04:51:31;8.82;;;2.65;;
34030;SDS011;20319;28.466;-16.274;2022-09-13T04:53:57;9.50;;;1.83;;
34030;SDS011;20319;28.466;-16.274;2022-09-13T04:56:24;6.40;;;2.30;;
34030;SDS011;20319;28.466;-16.274;2022-09-13T04:58:50;9.57;;;2.70;;
34030;SDS011;20319;28.466;-16.274;2022-09-13T05:01:17;7.53;;;2.10;;
34030;SDS011;20319;28.466;-16.274;2022-09-13T05:03:43;8.48;;;2.38;;
34030;SDS011;20319;28.466;-16.274;2022-09-13T05:06:15;9.27;;;2.15;;
34030;SDS011;20319;28.466;-16.274;2022-09-13T05:08:54;5.50;;;1.60;;
34030;SDS011;20319;28.466;-16.274;2022-09-13T05:11:24;7.78;;;2.15;;
34030;SDS011;20319;28.466;-16.274;2022-09-13T05:13:51;8.70;;;2.55;;
34030;SDS011;20319;28.466;-16.274;2022-09-13T05:16:21;7.00;;;2.20;;
34030;SDS011;20319;28.466;-16.274;2022-09-13T05:18:48;7.38;;;2.33;;
34030;SDS011;20319;28.466;-16.274;2022-09-13T05:21:14;7.97;;;2.30;;
34030;SDS011;20319;28.466;-16.274;2022-09-13T05:23:40;6.50;;;1.90;;
34030;SDS011;20319;28.466;-16.274;2022-09-13T05:26:06;7.25;;;2.20;;
34030;SDS011;20319;28.466;-16.274;2022-09-13T05:28:33;8.70;;;2.25;;
34030;SDS011;20319;28.466;-16.274;2022-09-13T05:31:00;6.32;;;1.92;;
34030;SDS011;20319;28.466;-16.274;2022-09-13T05:33:29;9.32;;;2.03;;
34030;SDS011;20319;28.466;-16.274;2022-09-13T05:35:56;9.20;;;2.10;;
34030;SDS011;20319;28.466;-16.274;2022-09-13T05:38:22;6.70;;;2.10;;
34030;SDS011;20319;28.466;-16.274;2022-09-13T05:40:52;9.65;;;2.78;;
34030;SDS011;20319;28.466;-16.274;2022-09-13T05:43:25;8.70;;;2.65;;
34030;SDS011;20319;28.466;-16.274;2022-09-13T05:45:59;7.53;;;2.13;;
34030;SDS011;20319;28.466;-16.274;2022-09-13T05:48:32;9.80;;;2.23;;
34030;SDS011;20319;28.466;-16.274;2022-09-13T05:51:02;7.38;;;2.63;;
34030;SDS011;20319;28.466;-16.274;2022-09-13T05:53:47;7.28;;;2.05;;
34030;SDS011;20319;28.466;-16.274;2022-09-13T05:56:20;11.00;;;2.55;;
34030;SDS011;20319;28.466;-16.274;2022-09-13T05:58:48;10.85;;;2.78;;
34030;SDS011;20319;28.466;-16.274;2022-09-13T06:01:16;10.68;;;2.10;;
34030;SDS011;20319;28.466;-16.274;2022-09-13T06:03:45;7.45;;;2.25;;
34030;SDS011;20319;28.466;-16.274;2022-09-13T06:06:12;13.43;;;2.38;;
34030;SDS011;20319;28.466;-16.274;2022-09-13T06:08:37;11.63;;;2.83;;
34030;SDS011;20319;28.466;-16.274;2022-09-13T06:11:04;9.25;;;2.63;;
34030;SDS011;20319;28.466;-16.274;2022-09-13T06:13:32;9.10;;;2.20;;
34030;SDS011;20319;28.466;-16.274;2022-09-13T06:15:59;9.13;;;1.95;;
34030;SDS011;20319;28.466;-16.274;2022-09-13T06:18:26;9.25;;;2.38;;
34030;SDS011;20319;28.466;-16.274;2022-09-13T06:21:02;7.90;;;2.40;;
34030;SDS011;20319;28.466;-16.274;2022-09-13T06:23:29;10.18;;;2.17;;
34030;SDS011;20319;28.466;-16.274;2022-09-13T06:26:06;8.63;;;2.17;;
34030;SDS011;20319;28.466;-16.274;2022-09-13T06:28:33;10.35;;;2.35;;
34030;SDS011;20319;28.466;-16.274;2022-09-13T06:31:04;10.50;;;2.45;;
34030;SDS011;20319;28.466;-16.274;2022-09-13T06:33:33;10.23;;;2.00;;
34030;SDS011;20319;28.466;-16.274;2022-09-13T06:36:00;8.18;;;2.38;;
34030;SDS011;20319;28.466;-16.274;2022-09-13T06:38:26;8.07;;;2.17;;
34030;SDS011;20319;28.466;-16.274;2022-09-13T06:41:26;9.40;;;2.40;;
34030;SDS011;20319;28.466;-16.274;2022-09-13T06:43:52;7.32;;;2.00;;
34030;SDS011;20319;28.466;-16.274;2022-09-13T06:46:19;5.13;;;1.88;;
34030;SDS011;20319;28.466;-16.274;2022-09-13T06:48:45;7.60;;;1.98;;
34030;SDS011;20319;28.466;-16.274;2022-09-13T06:51:12;9.07;;;2.08;;
34030;SDS011;20319;28.466;-16.274;2022-09-13T06:53:42;11.18;;;2.65;;
34030;SDS011;20319;28.466;-16.274;2022-09-13T06:56:14;9.85;;;2.10;;
34030;SDS011;20319;28.466;-16.274;2022-09-13T06:58:43;8.30;;;2.30;;
34030;SDS011;20319;28.466;-16.274;2022-09-13T07:01:13;9.50;;;2.50;;
34030;SDS011;20319;28.466;-16.274;2022-09-13T07:03:42;7.40;;;2.20;;
34030;SDS011;20319;28.466;-16.274;2022-09-13T07:06:20;7.72;;;2.40;;
34030;SDS011;20319;28.466;-16.274;2022-09-13T07:08:51;9.40;;;3.30;;
34030;SDS011;20319;28.466;-16.274;2022-09-13T07:11:18;8.95;;;2.58;;
34030;SDS011;20319;28.466;-16.274;2022-09-13T07:16:14;7.93;;;2.03;;
34030;SDS011;20319;28.466;-16.274;2022-09-13T07:18:40;8.95;;;2.13;;
34030;SDS011;20319;28.466;-16.274;2022-09-13T07:21:07;9.93;;;2.20;;
34030;SDS011;20319;28.466;-16.274;2022-09-13T07:23:34;9.20;;;2.50;;
34030;SDS011;20319;28.466;-16.274;2022-09-13T07:26:01;5.65;;;2.08;;
34030;SDS011;20319;28.466;-16.274;2022-09-13T07:28:32;9.35;;;2.28;;
34030;SDS011;20319;28.466;-16.274;2022-09-13T07:31:03;10.00;;;2.55;;
34030;SDS011;20319;28.466;-16.274;2022-09-13T07:33:30;8.27;;;2.65;;
34030;SDS011;20319;28.466;-16.274;2022-09-13T07:35:56;11.05;;;2.28;;
34030;SDS011;20319;28.466;-16.274;2022-09-13T07:38:23;7.68;;;2.10;;
34030;SDS011;20319;28.466;-16.274;2022-09-13T07:40:55;11.88;;;2.50;;
34030;SDS011;20319;28.466;-16.274;2022-09-13T07:43:23;9.23;;;2.45;;
34030;SDS011;20319;28.466;-16.274;2022-09-13T07:45:59;7.53;;;2.60;;
34030;SDS011;20319;28.466;-16.274;2022-09-13T07:48:27;8.50;;;2.25;;
34030;SDS011;20319;28.466;-16.274;2022-09-13T07:51:04;7.65;;;2.20;;
34030;SDS011;20319;28.466;-16.274;2022-09-13T07:53:31;9.80;;;2.15;;
34030;SDS011;20319;28.466;-16.274;2022-09-13T07:56:00;8.15;;;2.08;;
34030;SDS011;20319;28.466;-16.274;2022-09-13T07:58:37;8.57;;;2.38;;
34030;SDS011;20319;28.466;-16.274;2022-09-13T08:01:11;6.60;;;2.30;;
34030;SDS011;20319;28.466;-16.274;2022-09-13T08:03:40;4.53;;;1.83;;
34030;SDS011;20319;28.466;-16.274;2022-09-13T08:06:06;7.00;;;2.03;;
34030;SDS011;20319;28.466;-16.274;2022-09-13T08:08:32;10.70;;;2.80;;
34030;SDS011;20319;28.466;-16.274;2022-09-13T08:10:59;7.88;;;2.35;;
34030;SDS011;20319;28.466;-16.274;2022-09-13T08:13:26;8.13;;;2.05;;
34030;SDS011;20319;28.466;-16.274;2022-09-13T08:15:53;8.57;;;2.97;;
34030;SDS011;20319;28.466;-16.274;2022-09-13T08:18:19;9.32;;;2.72;;
34030;SDS011;20319;28.466;-16.274;2022-09-13T08:20:45;8.27;;;4.00;;
34030;SDS011;20319;28.466;-16.274;2022-09-13T08:23:12;9.20;;;2.45;;
34030;SDS011;20319;28.466;-16.274;2022-09-13T08:25:38;5.93;;;2.20;;
34030;SDS011;20319;28.466;-16.274;2022-09-13T08:28:08;8.40;;;3.70;;
34030;SDS011;20319;28.466;-16.274;2022-09-13T08:30:37;8.67;;;2.63;;
34030;SDS011;20319;28.466;-16.274;2022-09-13T08:33:03;8.52;;;2.05;;
34030;SDS011;20319;28.466;-16.274;2022-09-13T08:35:29;7.55;;;3.17;;
34030;SDS011;20319;28.466;-16.274;2022-09-13T08:37:55;13.30;;;6.28;;
34030;SDS011;20319;28.466;-16.274;2022-09-13T08:40:21;12.05;;;6.55;;
34030;SDS011;20319;28.466;-16.274;2022-09-13T08:42:56;11.43;;;3.78;;
34030;SDS011;20319;28.466;-16.274;2022-09-13T08:49:12;10.20;;;3.20;;
34030;SDS011;20319;28.466;-16.274;2022-09-13T08:51:52;9.50;;;2.83;;
34030;SDS011;20319;28.466;-16.274;2022-09-13T08:54:20;9.30;;;2.80;;
34030;SDS011;20319;28.466;-16.274;2022-09-13T09:02:45;7.72;;;2.45;;
34030;SDS011;20319;28.466;-16.274;2022-09-13T09:05:28;6.93;;;2.22;;
34030;SDS011;20319;28.466;-16.274;2022-09-13T09:13:29;8.60;;;4.18;;
34030;SDS011;20319;28.466;-16.274;2022-09-13T09:16:04;12.48;;;5.70;;
34030;SDS011;20319;28.466;-16.274;2022-09-13T09:18:58;9.75;;;4.18;;
34030;SDS011;20319;28.466;-16.274;2022-09-13T09:23:57;9.48;;;4.78;;
34030;SDS011;20319;28.466;-16.274;2022-09-13T09:26:26;11.10;;;4.03;;
34030;SDS011;20319;28.466;-16.274;2022-09-13T09:36:45;9.20;;;2.67;;
34030;SDS011;20319;28.466;-16.274;2022-09-13T09:39:12;8.52;;;2.53;;
34030;SDS011;20319;28.466;-16.274;2022-09-13T09:41:40;8.82;;;3.70;;
34030;SDS011;20319;28.466;-16.274;2022-09-13T09:46:41;8.93;;;3.03;;
34030;SDS011;20319;28.466;-16.274;2022-09-13T09:49:18;8.27;;;2.95;;
34030;SDS011;20319;28.466;-16.274;2022-09-13T09:52:09;7.78;;;2.20;;
34030;SDS011;20319;28.466;-16.274;2022-09-13T09:54:39;8.02;;;3.53;;
34030;SDS011;20319;28.466;-16.274;2022-09-13T09:57:05;14.00;;;9.23;;
34030;SDS011;20319;28.466;-16.274;2022-09-13T09:59:32;9.02;;;3.13;;
34030;SDS011;20319;28.466;-16.274;2022-09-13T10:01:59;10.25;;;5.03;;
34030;SDS011;20319;28.466;-16.274;2022-09-13T10:04:28;11.30;;;2.45;;
34030;SDS011;20319;28.466;-16.274;2022-09-13T10:09:57;9.00;;;2.92;;
34030;SDS011;20319;28.466;-16.274;2022-09-13T10:12:28;6.22;;;2.20;;
34030;SDS011;20319;28.466;-16.274;2022-09-13T10:17:36;7.63;;;2.80;;
34030;SDS011;20319;28.466;-16.274;2022-09-13T10:20:17;7.15;;;2.72;;
34030;SDS011;20319;28.466;-16.274;2022-09-13T10:22:45;10.02;;;2.38;;
34030;SDS011;20319;28.466;-16.274;2022-09-13T10:25:55;9.27;;;3.22;;
34030;SDS011;20319;28.466;-16.274;2022-09-13T10:28:21;10.30;;;3.20;;
34030;SDS011;20319;28.466;-16.274;2022-09-13T10:30:52;7.50;;;2.90;;
34030;SDS011;20319;28.466;-16.274;2022-09-13T10:33:28;7.15;;;2.60;;
34030;SDS011;20319;28.466;-16.274;2022-09-13T10:36:00;9.35;;;2.42;;
34030;SDS011;20319;28.466;-16.274;2022-09-13T10:38:58;10.10;;;2.40;;
34030;SDS011;20319;28.466;-16.274;2022-09-13T10:41:28;12.90;;;2.92;;
34030;SDS011;20319;28.466;-16.274;2022-09-13T10:43:57;8.07;;;2.92;;
34030;SDS011;20319;28.466;-16.274;2022-09-13T10:46:24;6.10;;;2.28;;
34030;SDS011;20319;28.466;-16.274;2022-09-13T10:48:53;10.02;;;2.60;;
34030;SDS011;20319;28.466;-16.274;2022-09-13T10:53:50;7.20;;;2.95;;
34030;SDS011;20319;28.466;-16.274;2022-09-13T10:56:31;5.88;;;1.83;;
34030;SDS011;20319;28.466;-16.274;2022-09-13T11:07:28;8.57;;;2.10;;
34030;SDS011;20319;28.466;-16.274;2022-09-13T11:15:56;6.60;;;2.08;;
34030;SDS011;20319;28.466;-16.274;2022-09-13T11:27:11;5.45;;;1.92;;
34030;SDS011;20319;28.466;-16.274;2022-09-13T11:32:27;9.77;;;2.60;;
34030;SDS011;20319;28.466;-16.274;2022-09-13T11:41:06;6.30;;;2.03;;
34030;SDS011;20319;28.466;-16.274;2022-09-13T11:49:52;9.35;;;2.20;;
34030;SDS011;20319;28.466;-16.274;2022-09-13T11:52:44;6.45;;;1.90;;
34030;SDS011;20319;28.466;-16.274;2022-09-13T11:55:19;6.53;;;1.75;;
34030;SDS011;20319;28.466;-16.274;2022-09-13T11:57:52;6.78;;;1.92;;
34030;SDS011;20319;28.466;-16.274;2022-09-13T12:00:28;7.85;;;1.92;;
34030;SDS011;20319;28.466;-16.274;2022-09-13T12:11:55;7.32;;;2.83;;
34030;SDS011;20319;28.466;-16.274;2022-09-13T12:14:28;8.95;;;2.35;;
34030;SDS011;20319;28.466;-16.274;2022-09-13T12:17:02;8.40;;;2.40;;
34030;SDS011;20319;28.466;-16.274;2022-09-13T12:19:41;10.35;;;2.92;;
34030;SDS011;20319;28.466;-16.274;2022-09-13T12:22:10;10.35;;;2.72;;
34030;SDS011;20319;28.466;-16.274;2022-09-13T12:24:41;6.18;;;2.35;;
34030;SDS011;20319;28.466;-16.274;2022-09-13T12:30:07;6.78;;;2.55;;
34030;SDS011;20319;28.466;-16.274;2022-09-13T12:32:36;8.15;;;2.85;;
34030;SDS011;20319;28.466;-16.274;2022-09-13T12:35:04;5.95;;;2.55;;
34030;SDS011;20319;28.466;-16.274;2022-09-13T13:00:32;8.95;;;3.13;;
34030;SDS011;20319;28.466;-16.274;2022-09-13T13:03:04;7.63;;;3.13;;
34030;SDS011;20319;28.466;-16.274;2022-09-13T13:05:50;7.22;;;2.70;;
34030;SDS011;20319;28.466;-16.274;2022-09-13T13:08:32;8.50;;;2.77;;
34030;SDS011;20319;28.466;-16.274;2022-09-13T13:13:34;7.68;;;2.78;;
34030;SDS011;20319;28.466;-16.274;2022-09-13T13:16:34;12.07;;;3.95;;
34030;SDS011;20319;28.466;-16.274;2022-09-13T13:21:53;11.68;;;3.45;;
34030;SDS011;20319;28.466;-16.274;2022-09-13T13:26:52;7.97;;;3.13;;
34030;SDS011;20319;28.466;-16.274;2022-09-13T13:34:46;9.27;;;2.95;;
34030;SDS011;20319;28.466;-16.274;2022-09-13T13:39:46;9.32;;;3.28;;
34030;SDS011;20319;28.466;-16.274;2022-09-13T13:42:28;10.00;;;3.70;;
34030;SDS011;20319;28.466;-16.274;2022-09-13T13:52:53;9.35;;;4.43;;
34030;SDS011;20319;28.466;-16.274;2022-09-13T14:00:50;10.70;;;2.67;;
34030;SDS011;20319;28.466;-16.274;2022-09-13T14:05:58;8.73;;;3.15;;
34030;SDS011;20319;28.466;-16.274;2022-09-13T14:08:37;7.68;;;2.90;;
34030;SDS011;20319;28.466;-16.274;2022-09-13T14:11:26;11.05;;;3.08;;
34030;SDS011;20319;28.466;-16.274;2022-09-13T14:14:31;10.15;;;3.67;;
34030;SDS011;20319;28.466;-16.274;2022-09-13T14:19:47;12.55;;;4.03;;
34030;SDS011;20319;28.466;-16.274;2022-09-13T14:22:17;11.82;;;5.22;;
34030;SDS011;20319;28.466;-16.274;2022-09-13T14:24:51;17.63;;;11.93;;
34030;SDS011;20319;28.466;-16.274;2022-09-13T14:29:47;13.75;;;4.43;;
34030;SDS011;20319;28.466;-16.274;2022-09-13T14:32:17;7.20;;;3.72;;
34030;SDS011;20319;28.466;-16.274;2022-09-13T14:34:58;8.35;;;3.03;;
34030;SDS011;20319;28.466;-16.274;2022-09-13T14:37:28;10.98;;;4.15;;
34030;SDS011;20319;28.466;-16.274;2022-09-13T14:40:38;14.95;;;10.52;;
34030;SDS011;20319;28.466;-16.274;2022-09-13T14:42:48;16.52;;;12.93;;
34030;SDS011;20319;28.466;-16.274;2022-09-13T14:45:18;20.05;;;11.63;;
34030;SDS011;20319;28.466;-16.274;2022-09-13T14:50:27;9.52;;;4.40;;
34030;SDS011;20319;28.466;-16.274;2022-09-13T14:53:02;8.23;;;4.47;;
34030;SDS011;20319;28.466;-16.274;2022-09-13T14:55:38;13.45;;;8.75;;
34030;SDS011;20319;28.466;-16.274;2022-09-13T14:58:18;12.45;;;4.53;;
34030;SDS011;20319;28.466;-16.274;2022-09-13T15:00:56;14.90;;;8.88;;
34030;SDS011;20319;28.466;-16.274;2022-09-13T15:05:53;19.58;;;17.40;;
34030;SDS011;20319;28.466;-16.274;2022-09-13T15:10:56;14.77;;;7.53;;
34030;SDS011;20319;28.466;-16.274;2022-09-13T15:13:22;35.67;;;31.42;;
34030;SDS011;20319;28.466;-16.274;2022-09-13T15:15:48;36.83;;;32.65;;
34030;SDS011;20319;28.466;-16.274;2022-09-13T15:23:29;14.43;;;9.82;;
34030;SDS011;20319;28.466;-16.274;2022-09-13T15:28:28;9.15;;;3.80;;
34030;SDS011;20319;28.466;-16.274;2022-09-13T15:30:56;8.30;;;3.75;;
34030;SDS011;20319;28.466;-16.274;2022-09-13T15:33:25;9.60;;;4.93;;
34030;SDS011;20319;28.466;-16.274;2022-09-13T15:38:56;8.93;;;3.70;;
34030;SDS011;20319;28.466;-16.274;2022-09-13T15:41:32;11.00;;;3.22;;
34030;SDS011;20319;28.466;-16.274;2022-09-13T15:44:03;8.20;;;3.20;;
34030;SDS011;20319;28.466;-16.274;2022-09-13T15:46:30;11.27;;;3.97;;
34030;SDS011;20319;28.466;-16.274;2022-09-13T15:49:00;8.80;;;2.90;;
34030;SDS011;20319;28.466;-16.274;2022-09-13T15:51:29;6.88;;;2.88;;
34030;SDS011;20319;28.466;-16.274;2022-09-13T15:53:55;8.68;;;3.10;;
34030;SDS011;20319;28.466;-16.274;2022-09-13T15:56:31;10.57;;;3.03;;
34030;SDS011;20319;28.466;-16.274;2022-09-13T15:59:02;12.65;;;3.10;;
34030;SDS011;20319;28.466;-16.274;2022-09-13T16:01:27;7.88;;;2.95;;
34030;SDS011;20319;28.466;-16.274;2022-09-13T16:03:53;12.43;;;3.10;;
34030;SDS011;20319;28.466;-16.274;2022-09-13T16:06:19;7.65;;;3.55;;
34030;SDS011;20319;28.466;-16.274;2022-09-13T16:08:44;18.92;;;13.27;;
34030;SDS011;20319;28.466;-16.274;2022-09-13T16:11:10;12.68;;;6.30;;
34030;SDS011;20319;28.466;-16.274;2022-09-13T16:13:35;10.70;;;5.25;;
34030;SDS011;20319;28.466;-16.274;2022-09-13T16:16:02;12.80;;;3.60;;
34030;SDS011;20319;28.466;-16.274;2022-09-13T16:18:29;11.05;;;4.55;;
34030;SDS011;20319;28.466;-16.274;2022-09-13T16:20:54;15.00;;;9.20;;
34030;SDS011;20319;28.466;-16.274;2022-09-13T16:23:20;17.40;;;9.80;;
34030;SDS011;20319;28.466;-16.274;2022-09-13T16:25:46;12.55;;;6.05;;
34030;SDS011;20319;28.466;-16.274;2022-09-13T16:28:15;10.52;;;5.32;;
34030;SDS011;20319;28.466;-16.274;2022-09-13T16:30:45;8.25;;;3.90;;
34030;SDS011;20319;28.466;-16.274;2022-09-13T16:33:11;15.98;;;8.88;;
34030;SDS011;20319;28.466;-16.274;2022-09-13T16:35:37;10.35;;;5.90;;
34030;SDS011;20319;28.466;-16.274;2022-09-13T16:38:03;14.25;;;7.60;;
34030;SDS011;20319;28.466;-16.274;2022-09-13T16:40:28;18.40;;;15.00;;
34030;SDS011;20319;28.466;-16.274;2022-09-13T16:42:54;13.55;;;5.93;;
34030;SDS011;20319;28.466;-16.274;2022-09-13T16:45:20;9.80;;;3.95;;
34030;SDS011;20319;28.466;-16.274;2022-09-13T16:47:46;7.88;;;3.90;;
34030;SDS011;20319;28.466;-16.274;2022-09-13T16:50:11;12.02;;;5.40;;
34030;SDS011;20319;28.466;-16.274;2022-09-13T16:52:38;9.10;;;4.68;;
34030;SDS011;20319;28.466;-16.274;2022-09-13T16:55:04;13.00;;;4.72;;
34030;SDS011;20319;28.466;-16.274;2022-09-13T16:57:30;8.15;;;3.53;;
34030;SDS011;20319;28.466;-16.274;2022-09-13T16:59:56;10.13;;;4.05;;
34030;SDS011;20319;28.466;-16.274;2022-09-13T17:02:23;6.00;;;3.13;;
34030;SDS011;20319;28.466;-16.274;2022-09-13T17:07:23;8.38;;;3.00;;
34030;SDS011;20319;28.466;-16.274;2022-09-13T17:09:49;7.10;;;2.75;;
34030;SDS011;20319;28.466;-16.274;2022-09-13T17:12:14;7.88;;;3.17;;
34030;SDS011;20319;28.466;-16.274;2022-09-13T17:14:40;10.65;;;3.20;;
34030;SDS011;20319;28.466;-16.274;2022-09-13T17:17:06;8.27;;;2.47;;
34030;SDS011;20319;28.466;-16.274;2022-09-13T17:19:32;6.90;;;2.60;;
34030;SDS011;20319;28.466;-16.274;2022-09-13T17:21:59;8.20;;;2.60;;
34030;SDS011;20319;28.466;-16.274;2022-09-13T17:24:26;9.20;;;2.55;;
34030;SDS011;20319;28.466;-16.274;2022-09-13T17:26:54;6.80;;;2.28;;
34030;SDS011;20319;28.466;-16.274;2022-09-13T17:29:23;9.75;;;2.63;;
34030;SDS011;20319;28.466;-16.274;2022-09-13T17:31:58;8.85;;;2.88;;
34030;SDS011;20319;28.466;-16.274;2022-09-13T17:34:28;18.90;;;9.85;;
34030;SDS011;20319;28.466;-16.274;2022-09-13T17:36:56;14.93;;;9.27;;
34030;SDS011;20319;28.466;-16.274;2022-09-13T17:39:22;22.08;;;16.88;;
34030;SDS011;20319;28.466;-16.274;2022-09-13T17:41:48;14.70;;;9.55;;
34030;SDS011;20319;28.466;-16.274;2022-09-13T17:44:13;18.00;;;12.98;;
34030;SDS011;20319;28.466;-16.274;2022-09-13T17:46:40;21.65;;;15.85;;
34030;SDS011;20319;28.466;-16.274;2022-09-13T17:49:06;28.77;;;24.92;;
34030;SDS011;20319;28.466;-16.274;2022-09-13T17:51:31;16.65;;;9.45;;
34030;SDS011;20319;28.466;-16.274;2022-09-13T17:53:58;10.60;;;5.60;;
34030;SDS011;20319;28.466;-16.274;2022-09-13T17:56:29;14.40;;;7.65;;
34030;SDS011;20319;28.466;-16.274;2022-09-13T18:01:43;17.67;;;12.35;;
34030;SDS011;20319;28.466;-16.274;2022-09-13T18:04:13;16.08;;;10.30;;
34030;SDS011;20319;28.466;-16.274;2022-09-13T18:06:40;13.35;;;7.40;;
34030;SDS011;20319;28.466;-16.274;2022-09-13T18:09:09;14.48;;;7.88;;
34030;SDS011;20319;28.466;-16.274;2022-09-13T18:11:36;14.70;;;4.10;;
34030;SDS011;20319;28.466;-16.274;2022-09-13T18:14:03;10.70;;;6.72;;
34030;SDS011;20319;28.466;-16.274;2022-09-13T18:16:30;10.65;;;5.05;;
34030;SDS011;20319;28.466;-16.274;2022-09-13T18:18:57;12.20;;;4.82;;
34030;SDS011;20319;28.466;-16.274;2022-09-13T18:21:24;9.38;;;3.25;;
34030;SDS011;20319;28.466;-16.274;2022-09-13T18:23:52;9.35;;;3.10;;
34030;SDS011;20319;28.466;-16.274;2022-09-13T18:26:22;8.90;;;3.53;;